sensor_id;sensor_type;location;lat;lon;timestamp;P1;durP1;ratioP1;P2;durP2;ratioP2
11086;SDS011;5597;47.588;9.642;2023-09-07T00:01:15;5.13;;;4.60;;
11086;SDS011;5597;47.588;9.642;2023-09-07T00:03:41;5.03;;;4.63;;
11086;SDS011;5597;47.588;9.642;2023-09-07T00:06:07;5.13;;;4.63;;
11086;SDS011;5597;47.588;9.642;2023-09-07T00:08:33;5.37;;;4.87;;
11086;SDS011;5597;47.588;9.642;2023-09-07T00:11:03;6.10;;;4.60;;
11086;SDS011;5597;47.588;9.642;2023-09-07T00:13:32;5.07;;;4.57;;
11086;SDS011;5597;47.588;9.642;2023-09-07T00:16:03;5.23;;;4.73;;
11086;SDS011;5597;47.588;9.642;2023-09-07T00:18:33;5.50;;;4.70;;
11086;SDS011;5597;47.588;9.642;2023-09-07T00:20:59;5.00;;;4.60;;
11086;SDS011;5597;47.588;9.642;2023-09-07T00:23:25;5.50;;;5.00;;
11086;SDS011;5597;47.588;9.642;2023-09-07T00:25:51;6.07;;;5.47;;
11086;SDS011;5597;47.588;9.642;2023-09-07T00:28:17;5.23;;;4.80;;
11086;SDS011;5597;47.588;9.642;2023-09-07T00:30:42;5.40;;;4.90;;
11086;SDS011;5597;47.588;9.642;2023-09-07T00:33:08;5.40;;;4.90;;
11086;SDS011;5597;47.588;9.642;2023-09-07T00:35:34;5.50;;;4.90;;
11086;SDS011;5597;47.588;9.642;2023-09-07T00:38:00;5.13;;;4.67;;
11086;SDS011;5597;47.588;9.642;2023-09-07T00:40:25;4.87;;;4.47;;
11086;SDS011;5597;47.588;9.642;2023-09-07T00:42:51;5.03;;;4.63;;
11086;SDS011;5597;47.588;9.642;2023-09-07T00:45:17;5.30;;;4.80;;
11086;SDS011;5597;47.588;9.642;2023-09-07T00:47:43;5.57;;;5.07;;
11086;SDS011;5597;47.588;9.642;2023-09-07T00:50:09;4.80;;;4.40;;
11086;SDS011;5597;47.588;9.642;2023-09-07T00:52:34;5.73;;;5.23;;
11086;SDS011;5597;47.588;9.642;2023-09-07T00:55:04;6.17;;;5.57;;
11086;SDS011;5597;47.588;9.642;2023-09-07T00:57:31;6.10;;;5.50;;
11086;SDS011;5597;47.588;9.642;2023-09-07T00:59:57;5.60;;;5.10;;
11086;SDS011;5597;47.588;9.642;2023-09-07T01:02:23;5.60;;;5.10;;
11086;SDS011;5597;47.588;9.642;2023-09-07T01:04:50;5.70;;;5.20;;
11086;SDS011;5597;47.588;9.642;2023-09-07T01:07:25;6.00;;;5.43;;
11086;SDS011;5597;47.588;9.642;2023-09-07T01:09:57;5.57;;;5.00;;
11086;SDS011;5597;47.588;9.642;2023-09-07T01:12:26;4.97;;;4.57;;
11086;SDS011;5597;47.588;9.642;2023-09-07T01:14:52;5.07;;;4.67;;
11086;SDS011;5597;47.588;9.642;2023-09-07T01:17:18;5.30;;;4.83;;
11086;SDS011;5597;47.588;9.642;2023-09-07T01:19:43;5.00;;;4.50;;
11086;SDS011;5597;47.588;9.642;2023-09-07T01:22:10;4.73;;;4.33;;
11086;SDS011;5597;47.588;9.642;2023-09-07T01:24:37;5.70;;;5.20;;
11086;SDS011;5597;47.588;9.642;2023-09-07T01:27:05;5.50;;;5.00;;
11086;SDS011;5597;47.588;9.642;2023-09-07T01:29:30;5.50;;;4.97;;
11086;SDS011;5597;47.588;9.642;2023-09-07T01:31:57;6.63;;;4.87;;
11086;SDS011;5597;47.588;9.642;2023-09-07T01:34:23;5.33;;;4.77;;
11086;SDS011;5597;47.588;9.642;2023-09-07T01:36:49;5.70;;;5.10;;
11086;SDS011;5597;47.588;9.642;2023-09-07T01:39:15;4.90;;;4.50;;
11086;SDS011;5597;47.588;9.642;2023-09-07T01:41:41;5.10;;;4.67;;
11086;SDS011;5597;47.588;9.642;2023-09-07T01:44:07;5.13;;;4.73;;
11086;SDS011;5597;47.588;9.642;2023-09-07T01:46:33;5.37;;;4.87;;
11086;SDS011;5597;47.588;9.642;2023-09-07T01:49:00;5.67;;;5.17;;
11086;SDS011;5597;47.588;9.642;2023-09-07T01:51:26;5.57;;;5.07;;
11086;SDS011;5597;47.588;9.642;2023-09-07T01:53:52;5.97;;;5.03;;
11086;SDS011;5597;47.588;9.642;2023-09-07T01:56:19;5.23;;;4.73;;
11086;SDS011;5597;47.588;9.642;2023-09-07T01:58:44;5.83;;;5.27;;
11086;SDS011;5597;47.588;9.642;2023-09-07T02:01:20;6.10;;;5.50;;
11086;SDS011;5597;47.588;9.642;2023-09-07T02:03:49;5.63;;;5.13;;
11086;SDS011;5597;47.588;9.642;2023-09-07T02:06:15;5.37;;;4.87;;
11086;SDS011;5597;47.588;9.642;2023-09-07T02:08:40;4.93;;;4.53;;
11086;SDS011;5597;47.588;9.642;2023-09-07T02:11:06;5.27;;;4.87;;
11086;SDS011;5597;47.588;9.642;2023-09-07T02:13:32;6.50;;;5.10;;
11086;SDS011;5597;47.588;9.642;2023-09-07T02:15:57;5.90;;;5.20;;
11086;SDS011;5597;47.588;9.642;2023-09-07T02:18:23;5.27;;;4.77;;
11086;SDS011;5597;47.588;9.642;2023-09-07T02:20:48;5.80;;;5.30;;
11086;SDS011;5597;47.588;9.642;2023-09-07T02:23:14;5.30;;;4.80;;
11086;SDS011;5597;47.588;9.642;2023-09-07T02:25:42;5.97;;;5.40;;
11086;SDS011;5597;47.588;9.642;2023-09-07T02:28:08;5.40;;;4.90;;
11086;SDS011;5597;47.588;9.642;2023-09-07T02:30:33;6.00;;;5.50;;
11086;SDS011;5597;47.588;9.642;2023-09-07T02:32:59;5.53;;;5.03;;
11086;SDS011;5597;47.588;9.642;2023-09-07T02:35:24;5.27;;;4.77;;
11086;SDS011;5597;47.588;9.642;2023-09-07T02:37:50;5.47;;;4.97;;
11086;SDS011;5597;47.588;9.642;2023-09-07T02:40:15;5.53;;;5.10;;
11086;SDS011;5597;47.588;9.642;2023-09-07T02:42:41;5.20;;;4.80;;
11086;SDS011;5597;47.588;9.642;2023-09-07T02:45:10;5.73;;;5.13;;
11086;SDS011;5597;47.588;9.642;2023-09-07T02:47:36;5.63;;;5.13;;
11086;SDS011;5597;47.588;9.642;2023-09-07T02:50:03;5.40;;;4.93;;
11086;SDS011;5597;47.588;9.642;2023-09-07T02:52:29;5.77;;;5.27;;
11086;SDS011;5597;47.588;9.642;2023-09-07T02:54:54;5.97;;;5.37;;
11086;SDS011;5597;47.588;9.642;2023-09-07T02:57:20;5.23;;;4.73;;
11086;SDS011;5597;47.588;9.642;2023-09-07T02:59:46;6.40;;;4.97;;
11086;SDS011;5597;47.588;9.642;2023-09-07T03:02:11;5.67;;;5.17;;
11086;SDS011;5597;47.588;9.642;2023-09-07T03:04:37;6.27;;;5.67;;
11086;SDS011;5597;47.588;9.642;2023-09-07T03:07:02;5.67;;;5.17;;
11086;SDS011;5597;47.588;9.642;2023-09-07T03:09:28;5.83;;;5.23;;
11086;SDS011;5597;47.588;9.642;2023-09-07T03:11:54;6.03;;;5.53;;
11086;SDS011;5597;47.588;9.642;2023-09-07T03:14:19;5.60;;;5.10;;
11086;SDS011;5597;47.588;9.642;2023-09-07T03:16:45;5.93;;;5.43;;
11086;SDS011;5597;47.588;9.642;2023-09-07T03:19:10;5.80;;;5.30;;
11086;SDS011;5597;47.588;9.642;2023-09-07T03:21:36;6.20;;;5.60;;
11086;SDS011;5597;47.588;9.642;2023-09-07T03:24:02;5.70;;;5.20;;
11086;SDS011;5597;47.588;9.642;2023-09-07T03:26:27;6.70;;;6.10;;
11086;SDS011;5597;47.588;9.642;2023-09-07T03:28:53;5.73;;;5.23;;
11086;SDS011;5597;47.588;9.642;2023-09-07T03:31:19;6.40;;;5.77;;
11086;SDS011;5597;47.588;9.642;2023-09-07T03:33:44;6.20;;;5.57;;
11086;SDS011;5597;47.588;9.642;2023-09-07T03:36:10;6.07;;;5.57;;
11086;SDS011;5597;47.588;9.642;2023-09-07T03:38:38;6.00;;;5.40;;
11086;SDS011;5597;47.588;9.642;2023-09-07T03:41:04;5.93;;;5.33;;
11086;SDS011;5597;47.588;9.642;2023-09-07T03:43:30;6.10;;;5.50;;
11086;SDS011;5597;47.588;9.642;2023-09-07T03:45:56;6.77;;;6.17;;
11086;SDS011;5597;47.588;9.642;2023-09-07T03:48:22;6.07;;;5.57;;
11086;SDS011;5597;47.588;9.642;2023-09-07T03:50:48;5.87;;;5.37;;
11086;SDS011;5597;47.588;9.642;2023-09-07T03:53:13;6.63;;;6.03;;
11086;SDS011;5597;47.588;9.642;2023-09-07T03:55:40;7.23;;;6.53;;
11086;SDS011;5597;47.588;9.642;2023-09-07T03:58:07;6.40;;;5.90;;
11086;SDS011;5597;47.588;9.642;2023-09-07T04:00:34;6.70;;;6.10;;
11086;SDS011;5597;47.588;9.642;2023-09-07T04:02:59;6.10;;;5.60;;
11086;SDS011;5597;47.588;9.642;2023-09-07T04:05:25;6.33;;;5.73;;
11086;SDS011;5597;47.588;9.642;2023-09-07T04:07:50;6.20;;;5.23;;
11086;SDS011;5597;47.588;9.642;2023-09-07T04:10:16;5.90;;;5.40;;
11086;SDS011;5597;47.588;9.642;2023-09-07T04:12:42;6.30;;;5.70;;
11086;SDS011;5597;47.588;9.642;2023-09-07T04:15:07;6.00;;;5.50;;
11086;SDS011;5597;47.588;9.642;2023-09-07T04:17:33;6.60;;;6.00;;
11086;SDS011;5597;47.588;9.642;2023-09-07T04:20:05;5.87;;;5.33;;
11086;SDS011;5597;47.588;9.642;2023-09-07T04:22:35;5.93;;;5.43;;
11086;SDS011;5597;47.588;9.642;2023-09-07T04:25:01;6.83;;;6.23;;
11086;SDS011;5597;47.588;9.642;2023-09-07T04:27:26;6.27;;;5.70;;
11086;SDS011;5597;47.588;9.642;2023-09-07T04:29:52;7.07;;;6.47;;
11086;SDS011;5597;47.588;9.642;2023-09-07T04:32:18;6.63;;;6.03;;
11086;SDS011;5597;47.588;9.642;2023-09-07T04:34:44;6.63;;;6.03;;
11086;SDS011;5597;47.588;9.642;2023-09-07T04:37:11;9.10;;;6.90;;
11086;SDS011;5597;47.588;9.642;2023-09-07T04:39:36;7.10;;;6.30;;
11086;SDS011;5597;47.588;9.642;2023-09-07T04:42:02;6.60;;;5.87;;
11086;SDS011;5597;47.588;9.642;2023-09-07T04:44:27;8.67;;;6.27;;
11086;SDS011;5597;47.588;9.642;2023-09-07T04:46:56;7.70;;;6.70;;
11086;SDS011;5597;47.588;9.642;2023-09-07T04:49:23;7.07;;;6.47;;
11086;SDS011;5597;47.588;9.642;2023-09-07T04:51:52;7.73;;;7.03;;
11086;SDS011;5597;47.588;9.642;2023-09-07T04:54:18;7.03;;;6.43;;
11086;SDS011;5597;47.588;9.642;2023-09-07T04:56:44;8.60;;;6.67;;
11086;SDS011;5597;47.588;9.642;2023-09-07T04:59:09;7.77;;;6.73;;
11086;SDS011;5597;47.588;9.642;2023-09-07T05:01:35;7.10;;;6.50;;
11086;SDS011;5597;47.588;9.642;2023-09-07T05:04:00;7.40;;;6.70;;
11086;SDS011;5597;47.588;9.642;2023-09-07T05:06:28;6.77;;;6.10;;
11086;SDS011;5597;47.588;9.642;2023-09-07T05:08:54;7.83;;;7.03;;
11086;SDS011;5597;47.588;9.642;2023-09-07T05:11:20;7.60;;;7.00;;
11086;SDS011;5597;47.588;9.642;2023-09-07T05:13:45;7.20;;;6.50;;
11086;SDS011;5597;47.588;9.642;2023-09-07T05:16:11;7.67;;;6.97;;
11086;SDS011;5597;47.588;9.642;2023-09-07T05:18:36;7.07;;;6.37;;
11086;SDS011;5597;47.588;9.642;2023-09-07T05:21:10;7.53;;;6.83;;
11086;SDS011;5597;47.588;9.642;2023-09-07T05:23:36;8.80;;;6.53;;
11086;SDS011;5597;47.588;9.642;2023-09-07T05:26:02;7.27;;;6.67;;
11086;SDS011;5597;47.588;9.642;2023-09-07T05:28:27;7.67;;;6.87;;
11086;SDS011;5597;47.588;9.642;2023-09-07T05:30:53;7.50;;;6.80;;
11086;SDS011;5597;47.588;9.642;2023-09-07T05:33:18;7.80;;;7.10;;
11086;SDS011;5597;47.588;9.642;2023-09-07T05:35:44;8.77;;;7.97;;
11086;SDS011;5597;47.588;9.642;2023-09-07T05:38:13;7.70;;;7.00;;
11086;SDS011;5597;47.588;9.642;2023-09-07T05:40:42;7.43;;;6.73;;
11086;SDS011;5597;47.588;9.642;2023-09-07T05:43:09;8.37;;;7.57;;
11086;SDS011;5597;47.588;9.642;2023-09-07T05:45:39;7.43;;;6.73;;
11086;SDS011;5597;47.588;9.642;2023-09-07T05:48:06;8.03;;;7.27;;
11086;SDS011;5597;47.588;9.642;2023-09-07T05:50:33;8.00;;;7.30;;
11086;SDS011;5597;47.588;9.642;2023-09-07T05:53:00;8.37;;;7.57;;
11086;SDS011;5597;47.588;9.642;2023-09-07T05:55:28;8.40;;;7.40;;
11086;SDS011;5597;47.588;9.642;2023-09-07T05:57:54;9.03;;;8.13;;
11086;SDS011;5597;47.588;9.642;2023-09-07T06:00:20;9.97;;;7.50;;
11086;SDS011;5597;47.588;9.642;2023-09-07T06:02:46;9.03;;;7.73;;
11086;SDS011;5597;47.588;9.642;2023-09-07T06:05:12;8.70;;;7.43;;
11086;SDS011;5597;47.588;9.642;2023-09-07T06:07:38;8.67;;;7.87;;
11086;SDS011;5597;47.588;9.642;2023-09-07T06:10:04;8.23;;;7.43;;
11086;SDS011;5597;47.588;9.642;2023-09-07T06:12:33;8.33;;;7.53;;
11086;SDS011;5597;47.588;9.642;2023-09-07T06:14:59;7.70;;;6.97;;
11086;SDS011;5597;47.588;9.642;2023-09-07T06:17:26;9.70;;;7.37;;
11086;SDS011;5597;47.588;9.642;2023-09-07T06:19:52;8.17;;;7.37;;
11086;SDS011;5597;47.588;9.642;2023-09-07T06:22:19;7.77;;;7.07;;
11086;SDS011;5597;47.588;9.642;2023-09-07T06:24:44;8.20;;;7.40;;
11086;SDS011;5597;47.588;9.642;2023-09-07T06:27:10;7.63;;;6.93;;
11086;SDS011;5597;47.588;9.642;2023-09-07T06:29:35;7.87;;;7.17;;
11086;SDS011;5597;47.588;9.642;2023-09-07T06:32:01;8.20;;;7.50;;
11086;SDS011;5597;47.588;9.642;2023-09-07T06:34:26;7.50;;;6.90;;
11086;SDS011;5597;47.588;9.642;2023-09-07T06:36:52;8.57;;;7.17;;
11086;SDS011;5597;47.588;9.642;2023-09-07T06:39:18;7.03;;;6.37;;
11086;SDS011;5597;47.588;9.642;2023-09-07T06:41:45;7.30;;;6.60;;
11086;SDS011;5597;47.588;9.642;2023-09-07T06:44:11;7.30;;;6.67;;
11086;SDS011;5597;47.588;9.642;2023-09-07T06:46:36;6.73;;;6.13;;
11086;SDS011;5597;47.588;9.642;2023-09-07T06:49:02;6.83;;;6.20;;
11086;SDS011;5597;47.588;9.642;2023-09-07T06:51:28;7.03;;;6.33;;
11086;SDS011;5597;47.588;9.642;2023-09-07T06:53:55;6.03;;;5.40;;
11086;SDS011;5597;47.588;9.642;2023-09-07T06:56:20;5.93;;;5.43;;
11086;SDS011;5597;47.588;9.642;2023-09-07T06:58:46;7.17;;;5.47;;
11086;SDS011;5597;47.588;9.642;2023-09-07T07:01:12;5.67;;;5.10;;
11086;SDS011;5597;47.588;9.642;2023-09-07T07:03:37;6.03;;;5.53;;
11086;SDS011;5597;47.588;9.642;2023-09-07T07:06:03;6.80;;;5.70;;
11086;SDS011;5597;47.588;9.642;2023-09-07T07:08:28;6.07;;;5.57;;
11086;SDS011;5597;47.588;9.642;2023-09-07T07:10:54;5.47;;;4.97;;
11086;SDS011;5597;47.588;9.642;2023-09-07T07:13:20;5.30;;;4.90;;
11086;SDS011;5597;47.588;9.642;2023-09-07T07:15:45;5.50;;;5.00;;
11086;SDS011;5597;47.588;9.642;2023-09-07T07:18:11;5.63;;;5.13;;
11086;SDS011;5597;47.588;9.642;2023-09-07T07:20:40;5.20;;;4.80;;
11086;SDS011;5597;47.588;9.642;2023-09-07T07:23:07;5.67;;;5.17;;
11086;SDS011;5597;47.588;9.642;2023-09-07T07:25:32;5.37;;;4.90;;
11086;SDS011;5597;47.588;9.642;2023-09-07T07:27:59;5.50;;;5.00;;
11086;SDS011;5597;47.588;9.642;2023-09-07T07:30:28;6.60;;;6.00;;
11086;SDS011;5597;47.588;9.642;2023-09-07T07:32:55;5.37;;;4.93;;
11086;SDS011;5597;47.588;9.642;2023-09-07T07:35:20;4.83;;;4.43;;
11086;SDS011;5597;47.588;9.642;2023-09-07T07:37:46;5.67;;;5.17;;
11086;SDS011;5597;47.588;9.642;2023-09-07T07:40:12;4.97;;;4.57;;
11086;SDS011;5597;47.588;9.642;2023-09-07T07:42:37;5.40;;;4.90;;
11086;SDS011;5597;47.588;9.642;2023-09-07T07:45:04;5.23;;;4.77;;
11086;SDS011;5597;47.588;9.642;2023-09-07T07:47:30;6.03;;;5.40;;
11086;SDS011;5597;47.588;9.642;2023-09-07T07:49:55;5.73;;;5.23;;
11086;SDS011;5597;47.588;9.642;2023-09-07T07:52:21;7.03;;;6.40;;
11086;SDS011;5597;47.588;9.642;2023-09-07T07:54:47;6.47;;;5.87;;
11086;SDS011;5597;47.588;9.642;2023-09-07T07:57:12;6.13;;;5.63;;
11086;SDS011;5597;47.588;9.642;2023-09-07T07:59:38;6.27;;;5.67;;
11086;SDS011;5597;47.588;9.642;2023-09-07T08:02:03;5.70;;;5.20;;
11086;SDS011;5597;47.588;9.642;2023-09-07T08:04:31;6.10;;;5.60;;
11086;SDS011;5597;47.588;9.642;2023-09-07T08:06:57;6.17;;;5.67;;
11086;SDS011;5597;47.588;9.642;2023-09-07T08:09:28;5.80;;;5.07;;
11086;SDS011;5597;47.588;9.642;2023-09-07T08:11:57;5.93;;;5.27;;
11086;SDS011;5597;47.588;9.642;2023-09-07T08:14:25;7.03;;;5.57;;
11086;SDS011;5597;47.588;9.642;2023-09-07T08:16:52;5.53;;;4.90;;
11086;SDS011;5597;47.588;9.642;2023-09-07T08:19:18;4.90;;;4.50;;
11086;SDS011;5597;47.588;9.642;2023-09-07T08:21:44;5.30;;;4.90;;
11086;SDS011;5597;47.588;9.642;2023-09-07T08:24:11;5.30;;;4.80;;
11086;SDS011;5597;47.588;9.642;2023-09-07T08:26:37;5.13;;;4.73;;
11086;SDS011;5597;47.588;9.642;2023-09-07T08:29:03;5.97;;;5.47;;
11086;SDS011;5597;47.588;9.642;2023-09-07T08:31:33;5.23;;;4.83;;
11086;SDS011;5597;47.588;9.642;2023-09-07T08:34:04;6.97;;;6.03;;
11086;SDS011;5597;47.588;9.642;2023-09-07T08:36:31;5.47;;;4.97;;
11086;SDS011;5597;47.588;9.642;2023-09-07T08:38:59;5.90;;;5.40;;
11086;SDS011;5597;47.588;9.642;2023-09-07T08:41:30;5.40;;;5.00;;
11086;SDS011;5597;47.588;9.642;2023-09-07T08:44:02;4.90;;;4.50;;
11086;SDS011;5597;47.588;9.642;2023-09-07T08:46:29;5.47;;;5.07;;
11086;SDS011;5597;47.588;9.642;2023-09-07T08:48:56;5.73;;;5.23;;
11086;SDS011;5597;47.588;9.642;2023-09-07T08:51:24;6.53;;;5.93;;
11086;SDS011;5597;47.588;9.642;2023-09-07T08:53:52;6.10;;;5.60;;
11086;SDS011;5597;47.588;9.642;2023-09-07T08:56:18;5.53;;;5.07;;
11086;SDS011;5597;47.588;9.642;2023-09-07T08:58:46;6.87;;;5.97;;
11086;SDS011;5597;47.588;9.642;2023-09-07T09:01:14;5.63;;;5.13;;
11086;SDS011;5597;47.588;9.642;2023-09-07T09:03:40;6.03;;;5.43;;
11086;SDS011;5597;47.588;9.642;2023-09-07T09:06:07;6.00;;;5.40;;
11086;SDS011;5597;47.588;9.642;2023-09-07T09:08:46;5.80;;;5.20;;
11086;SDS011;5597;47.588;9.642;2023-09-07T09:11:14;6.00;;;5.50;;
11086;SDS011;5597;47.588;9.642;2023-09-07T09:13:41;5.53;;;5.03;;
11086;SDS011;5597;47.588;9.642;2023-09-07T09:16:08;5.33;;;4.83;;
11086;SDS011;5597;47.588;9.642;2023-09-07T09:18:34;6.20;;;5.60;;
11086;SDS011;5597;47.588;9.642;2023-09-07T09:21:00;5.63;;;5.23;;
11086;SDS011;5597;47.588;9.642;2023-09-07T09:23:35;6.30;;;5.70;;
11086;SDS011;5597;47.588;9.642;2023-09-07T09:26:02;6.77;;;6.17;;
11086;SDS011;5597;47.588;9.642;2023-09-07T09:28:32;6.07;;;5.57;;
11086;SDS011;5597;47.588;9.642;2023-09-07T09:31:00;5.33;;;4.90;;
11086;SDS011;5597;47.588;9.642;2023-09-07T09:33:27;6.20;;;5.70;;
11086;SDS011;5597;47.588;9.642;2023-09-07T09:35:55;5.90;;;5.40;;
11086;SDS011;5597;47.588;9.642;2023-09-07T09:38:21;5.97;;;5.47;;
11086;SDS011;5597;47.588;9.642;2023-09-07T09:40:47;5.43;;;5.03;;
11086;SDS011;5597;47.588;9.642;2023-09-07T09:43:13;5.50;;;5.00;;
11086;SDS011;5597;47.588;9.642;2023-09-07T09:45:38;6.00;;;5.40;;
11086;SDS011;5597;47.588;9.642;2023-09-07T09:48:05;6.07;;;5.50;;
11086;SDS011;5597;47.588;9.642;2023-09-07T09:50:31;6.30;;;5.77;;
11086;SDS011;5597;47.588;9.642;2023-09-07T09:52:58;6.00;;;5.40;;
11086;SDS011;5597;47.588;9.642;2023-09-07T09:55:25;7.60;;;6.17;;
11086;SDS011;5597;47.588;9.642;2023-09-07T09:57:51;7.60;;;6.90;;
11086;SDS011;5597;47.588;9.642;2023-09-07T10:00:16;6.00;;;5.50;;
11086;SDS011;5597;47.588;9.642;2023-09-07T10:02:44;5.70;;;5.20;;
11086;SDS011;5597;47.588;9.642;2023-09-07T10:05:13;6.80;;;6.10;;
11086;SDS011;5597;47.588;9.642;2023-09-07T10:07:43;6.40;;;5.90;;
11086;SDS011;5597;47.588;9.642;2023-09-07T10:10:12;6.20;;;5.40;;
11086;SDS011;5597;47.588;9.642;2023-09-07T10:12:40;5.90;;;5.40;;
11086;SDS011;5597;47.588;9.642;2023-09-07T10:15:19;6.17;;;5.57;;
11086;SDS011;5597;47.588;9.642;2023-09-07T10:17:48;6.63;;;5.93;;
11086;SDS011;5597;47.588;9.642;2023-09-07T10:20:18;6.30;;;5.70;;
11086;SDS011;5597;47.588;9.642;2023-09-07T10:22:45;7.00;;;6.40;;
11086;SDS011;5597;47.588;9.642;2023-09-07T10:25:21;5.90;;;5.30;;
11086;SDS011;5597;47.588;9.642;2023-09-07T10:27:48;6.40;;;5.80;;
11086;SDS011;5597;47.588;9.642;2023-09-07T10:30:13;6.93;;;6.17;;
11086;SDS011;5597;47.588;9.642;2023-09-07T10:32:44;6.60;;;6.07;;
11086;SDS011;5597;47.588;9.642;2023-09-07T10:35:18;6.10;;;5.60;;
11086;SDS011;5597;47.588;9.642;2023-09-07T10:37:47;6.50;;;6.00;;
11086;SDS011;5597;47.588;9.642;2023-09-07T10:40:13;7.23;;;6.60;;
11086;SDS011;5597;47.588;9.642;2023-09-07T10:42:44;6.07;;;5.57;;
11086;SDS011;5597;47.588;9.642;2023-09-07T10:45:13;5.80;;;5.30;;
11086;SDS011;5597;47.588;9.642;2023-09-07T10:47:43;5.97;;;5.47;;
11086;SDS011;5597;47.588;9.642;2023-09-07T10:50:12;6.57;;;6.07;;
11086;SDS011;5597;47.588;9.642;2023-09-07T10:52:39;6.77;;;6.27;;
11086;SDS011;5597;47.588;9.642;2023-09-07T10:55:06;8.23;;;7.50;;
11086;SDS011;5597;47.588;9.642;2023-09-07T10:57:40;7.43;;;6.63;;
11086;SDS011;5597;47.588;9.642;2023-09-07T11:00:10;6.67;;;6.13;;
11086;SDS011;5597;47.588;9.642;2023-09-07T11:02:37;7.10;;;6.40;;
11086;SDS011;5597;47.588;9.642;2023-09-07T11:05:03;6.73;;;6.03;;
11086;SDS011;5597;47.588;9.642;2023-09-07T11:07:29;6.60;;;6.00;;
11086;SDS011;5597;47.588;9.642;2023-09-07T11:09:55;7.27;;;6.67;;
11086;SDS011;5597;47.588;9.642;2023-09-07T11:12:21;6.17;;;5.67;;
11086;SDS011;5597;47.588;9.642;2023-09-07T11:14:47;7.20;;;6.60;;
11086;SDS011;5597;47.588;9.642;2023-09-07T11:17:15;5.97;;;5.40;;
11086;SDS011;5597;47.588;9.642;2023-09-07T11:19:41;6.80;;;6.20;;
11086;SDS011;5597;47.588;9.642;2023-09-07T11:22:09;6.13;;;5.60;;
11086;SDS011;5597;47.588;9.642;2023-09-07T11:24:35;5.80;;;5.30;;
11086;SDS011;5597;47.588;9.642;2023-09-07T11:27:01;5.73;;;5.33;;
11086;SDS011;5597;47.588;9.642;2023-09-07T11:29:33;7.17;;;6.57;;
11086;SDS011;5597;47.588;9.642;2023-09-07T11:32:08;6.50;;;6.00;;
11086;SDS011;5597;47.588;9.642;2023-09-07T11:34:34;5.60;;;5.00;;
11086;SDS011;5597;47.588;9.642;2023-09-07T11:37:02;6.23;;;5.63;;
11086;SDS011;5597;47.588;9.642;2023-09-07T11:39:28;5.77;;;5.27;;
11086;SDS011;5597;47.588;9.642;2023-09-07T11:41:54;6.10;;;5.60;;
11086;SDS011;5597;47.588;9.642;2023-09-07T11:44:19;6.20;;;5.60;;
11086;SDS011;5597;47.588;9.642;2023-09-07T11:46:45;6.20;;;5.70;;
11086;SDS011;5597;47.588;9.642;2023-09-07T11:49:11;5.70;;;5.30;;
11086;SDS011;5597;47.588;9.642;2023-09-07T11:51:37;6.30;;;5.20;;
11086;SDS011;5597;47.588;9.642;2023-09-07T11:54:03;6.40;;;5.90;;
11086;SDS011;5597;47.588;9.642;2023-09-07T11:56:29;5.97;;;5.47;;
11086;SDS011;5597;47.588;9.642;2023-09-07T11:58:55;6.33;;;5.73;;
11086;SDS011;5597;47.588;9.642;2023-09-07T12:01:21;8.33;;;6.23;;
11086;SDS011;5597;47.588;9.642;2023-09-07T12:03:47;6.20;;;5.60;;
11086;SDS011;5597;47.588;9.642;2023-09-07T12:06:13;6.17;;;5.60;;
11086;SDS011;5597;47.588;9.642;2023-09-07T12:08:41;5.33;;;4.83;;
11086;SDS011;5597;47.588;9.642;2023-09-07T12:11:08;6.30;;;5.70;;
11086;SDS011;5597;47.588;9.642;2023-09-07T12:13:33;6.23;;;5.73;;
11086;SDS011;5597;47.588;9.642;2023-09-07T12:15:59;6.47;;;5.97;;
11086;SDS011;5597;47.588;9.642;2023-09-07T12:18:27;5.80;;;5.30;;
11086;SDS011;5597;47.588;9.642;2023-09-07T12:20:52;5.53;;;4.97;;
11086;SDS011;5597;47.588;9.642;2023-09-07T12:23:18;5.87;;;5.40;;
11086;SDS011;5597;47.588;9.642;2023-09-07T12:25:43;5.70;;;5.20;;
11086;SDS011;5597;47.588;9.642;2023-09-07T12:28:09;4.77;;;4.37;;
11086;SDS011;5597;47.588;9.642;2023-09-07T12:30:34;4.83;;;4.43;;
11086;SDS011;5597;47.588;9.642;2023-09-07T12:33:00;5.53;;;5.03;;
11086;SDS011;5597;47.588;9.642;2023-09-07T12:35:25;6.77;;;5.27;;
11086;SDS011;5597;47.588;9.642;2023-09-07T12:37:51;5.97;;;5.47;;
11086;SDS011;5597;47.588;9.642;2023-09-07T12:40:17;5.40;;;5.00;;
11086;SDS011;5597;47.588;9.642;2023-09-07T12:42:43;5.20;;;4.70;;
11086;SDS011;5597;47.588;9.642;2023-09-07T12:45:09;5.73;;;5.23;;
11086;SDS011;5597;47.588;9.642;2023-09-07T12:47:36;5.67;;;5.10;;
11086;SDS011;5597;47.588;9.642;2023-09-07T12:50:02;5.57;;;5.00;;
11086;SDS011;5597;47.588;9.642;2023-09-07T12:52:29;5.53;;;5.00;;
11086;SDS011;5597;47.588;9.642;2023-09-07T12:54:55;6.17;;;5.57;;
11086;SDS011;5597;47.588;9.642;2023-09-07T12:57:21;5.87;;;5.37;;
11086;SDS011;5597;47.588;9.642;2023-09-07T12:59:47;5.50;;;5.10;;
11086;SDS011;5597;47.588;9.642;2023-09-07T13:02:12;5.60;;;5.20;;
11086;SDS011;5597;47.588;9.642;2023-09-07T13:04:38;5.63;;;5.13;;
11086;SDS011;5597;47.588;9.642;2023-09-07T13:07:03;5.80;;;5.40;;
11086;SDS011;5597;47.588;9.642;2023-09-07T13:09:29;5.93;;;5.40;;
11086;SDS011;5597;47.588;9.642;2023-09-07T13:11:54;5.77;;;5.17;;
11086;SDS011;5597;47.588;9.642;2023-09-07T13:14:20;6.00;;;5.13;;
11086;SDS011;5597;47.588;9.642;2023-09-07T13:16:45;5.50;;;5.10;;
11086;SDS011;5597;47.588;9.642;2023-09-07T13:19:11;5.37;;;4.87;;
11086;SDS011;5597;47.588;9.642;2023-09-07T13:21:37;5.57;;;5.07;;
11086;SDS011;5597;47.588;9.642;2023-09-07T13:24:03;5.43;;;4.93;;
11086;SDS011;5597;47.588;9.642;2023-09-07T13:26:29;5.50;;;5.00;;
11086;SDS011;5597;47.588;9.642;2023-09-07T13:28:55;6.40;;;5.70;;
11086;SDS011;5597;47.588;9.642;2023-09-07T13:31:20;4.97;;;4.57;;
11086;SDS011;5597;47.588;9.642;2023-09-07T13:33:46;4.73;;;4.33;;
11086;SDS011;5597;47.588;9.642;2023-09-07T13:36:12;7.80;;;5.70;;
11086;SDS011;5597;47.588;9.642;2023-09-07T13:38:37;5.07;;;4.67;;
11086;SDS011;5597;47.588;9.642;2023-09-07T13:41:03;5.10;;;4.70;;
11086;SDS011;5597;47.588;9.642;2023-09-07T13:43:28;5.40;;;5.00;;
11086;SDS011;5597;47.588;9.642;2023-09-07T13:45:54;5.50;;;5.00;;
11086;SDS011;5597;47.588;9.642;2023-09-07T13:48:19;5.17;;;4.77;;
11086;SDS011;5597;47.588;9.642;2023-09-07T13:50:45;6.10;;;5.50;;
11086;SDS011;5597;47.588;9.642;2023-09-07T13:53:11;5.30;;;4.90;;
11086;SDS011;5597;47.588;9.642;2023-09-07T13:55:37;5.60;;;4.97;;
11086;SDS011;5597;47.588;9.642;2023-09-07T13:58:04;4.97;;;4.57;;
11086;SDS011;5597;47.588;9.642;2023-09-07T14:00:31;5.10;;;4.60;;
11086;SDS011;5597;47.588;9.642;2023-09-07T14:02:57;5.20;;;4.80;;
11086;SDS011;5597;47.588;9.642;2023-09-07T14:05:23;5.37;;;4.87;;
11086;SDS011;5597;47.588;9.642;2023-09-07T14:07:48;5.40;;;4.90;;
11086;SDS011;5597;47.588;9.642;2023-09-07T14:10:14;4.77;;;4.37;;
11086;SDS011;5597;47.588;9.642;2023-09-07T14:12:39;4.80;;;4.40;;
11086;SDS011;5597;47.588;9.642;2023-09-07T14:15:05;5.57;;;4.87;;
11086;SDS011;5597;47.588;9.642;2023-09-07T14:17:31;5.57;;;4.73;;
11086;SDS011;5597;47.588;9.642;2023-09-07T14:19:57;4.50;;;4.20;;
11086;SDS011;5597;47.588;9.642;2023-09-07T14:22:22;4.80;;;4.40;;
11086;SDS011;5597;47.588;9.642;2023-09-07T14:24:48;4.67;;;4.30;;
11086;SDS011;5597;47.588;9.642;2023-09-07T14:27:13;4.97;;;4.57;;
11086;SDS011;5597;47.588;9.642;2023-09-07T14:29:39;4.97;;;4.47;;
11086;SDS011;5597;47.588;9.642;2023-09-07T14:32:05;5.17;;;4.77;;
11086;SDS011;5597;47.588;9.642;2023-09-07T14:34:30;5.37;;;4.90;;
11086;SDS011;5597;47.588;9.642;2023-09-07T14:36:56;4.30;;;3.90;;
11086;SDS011;5597;47.588;9.642;2023-09-07T14:39:22;4.83;;;4.43;;
11086;SDS011;5597;47.588;9.642;2023-09-07T14:41:50;4.33;;;4.03;;
11086;SDS011;5597;47.588;9.642;2023-09-07T14:44:19;4.80;;;4.50;;
11086;SDS011;5597;47.588;9.642;2023-09-07T14:46:45;4.60;;;4.30;;
11086;SDS011;5597;47.588;9.642;2023-09-07T14:49:14;4.90;;;4.33;;
11086;SDS011;5597;47.588;9.642;2023-09-07T14:51:40;4.50;;;4.10;;
11086;SDS011;5597;47.588;9.642;2023-09-07T14:54:06;4.60;;;4.20;;
11086;SDS011;5597;47.588;9.642;2023-09-07T14:56:31;5.30;;;4.90;;